sensor_id;sensor_type;location;lat;lon;timestamp;P1;durP1;ratioP1;P2;durP2;ratioP2
24637;SDS011;12773;50.162;8.548;2022-10-16T00:01:19;2.27;;;1.45;;
24637;SDS011;12773;50.162;8.548;2022-10-16T00:04:08;2.00;;;1.32;;
24637;SDS011;12773;50.162;8.548;2022-10-16T00:06:55;3.83;;;1.52;;
24637;SDS011;12773;50.162;8.548;2022-10-16T00:09:43;1.92;;;1.60;;
24637;SDS011;12773;50.162;8.548;2022-10-16T00:12:30;2.35;;;1.60;;
24637;SDS011;12773;50.162;8.548;2022-10-16T00:15:18;3.12;;;1.55;;
24637;SDS011;12773;50.162;8.548;2022-10-16T00:18:05;3.83;;;1.80;;
24637;SDS011;12773;50.162;8.548;2022-10-16T00:20:53;2.83;;;1.37;;
24637;SDS011;12773;50.162;8.548;2022-10-16T00:23:40;1.80;;;1.50;;
24637;SDS011;12773;50.162;8.548;2022-10-16T00:26:29;2.08;;;1.70;;
24637;SDS011;12773;50.162;8.548;2022-10-16T00:29:17;3.90;;;1.67;;
24637;SDS011;12773;50.162;8.548;2022-10-16T00:32:04;3.90;;;1.92;;
24637;SDS011;12773;50.162;8.548;2022-10-16T00:34:52;4.65;;;1.90;;
24637;SDS011;12773;50.162;8.548;2022-10-16T00:37:40;4.50;;;1.80;;
24637;SDS011;12773;50.162;8.548;2022-10-16T00:40:27;3.25;;;1.98;;
24637;SDS011;12773;50.162;8.548;2022-10-16T00:44:02;3.92;;;2.10;;
24637;SDS011;12773;50.162;8.548;2022-10-16T00:49:13;7.75;;;2.12;;
24637;SDS011;12773;50.162;8.548;2022-10-16T00:52:02;8.63;;;2.37;;
24637;SDS011;12773;50.162;8.548;2022-10-16T00:54:49;3.08;;;1.90;;
24637;SDS011;12773;50.162;8.548;2022-10-16T00:57:39;4.10;;;2.27;;
24637;SDS011;12773;50.162;8.548;2022-10-16T01:00:27;3.05;;;2.22;;
24637;SDS011;12773;50.162;8.548;2022-10-16T01:03:23;8.98;;;3.00;;
24637;SDS011;12773;50.162;8.548;2022-10-16T01:12:19;7.15;;;4.03;;
24637;SDS011;12773;50.162;8.548;2022-10-16T01:18:00;10.43;;;6.58;;
24637;SDS011;12773;50.162;8.548;2022-10-16T01:20:50;11.38;;;6.53;;
24637;SDS011;12773;50.162;8.548;2022-10-16T01:27:10;13.60;;;7.05;;
24637;SDS011;12773;50.162;8.548;2022-10-16T01:30:10;12.28;;;7.08;;
24637;SDS011;12773;50.162;8.548;2022-10-16T01:33:21;14.45;;;7.62;;
24637;SDS011;12773;50.162;8.548;2022-10-16T01:36:12;16.87;;;8.80;;
24637;SDS011;12773;50.162;8.548;2022-10-16T01:39:01;22.85;;;8.48;;
24637;SDS011;12773;50.162;8.548;2022-10-16T01:41:51;16.65;;;9.25;;
24637;SDS011;12773;50.162;8.548;2022-10-16T01:44:39;17.20;;;9.63;;
24637;SDS011;12773;50.162;8.548;2022-10-16T01:47:30;18.02;;;9.60;;
24637;SDS011;12773;50.162;8.548;2022-10-16T01:50:18;18.90;;;9.83;;
24637;SDS011;12773;50.162;8.548;2022-10-16T01:53:08;22.07;;;10.72;;
24637;SDS011;12773;50.162;8.548;2022-10-16T01:55:58;18.55;;;10.00;;
24637;SDS011;12773;50.162;8.548;2022-10-16T01:58:54;24.10;;;10.30;;
24637;SDS011;12773;50.162;8.548;2022-10-16T02:01:41;19.42;;;10.95;;
24637;SDS011;12773;50.162;8.548;2022-10-16T02:04:36;18.23;;;9.98;;
24637;SDS011;12773;50.162;8.548;2022-10-16T02:07:21;23.62;;;10.93;;
24637;SDS011;12773;50.162;8.548;2022-10-16T02:10:09;20.65;;;11.68;;
24637;SDS011;12773;50.162;8.548;2022-10-16T02:13:05;17.60;;;10.30;;
24637;SDS011;12773;50.162;8.548;2022-10-16T02:15:57;18.37;;;10.48;;
24637;SDS011;12773;50.162;8.548;2022-10-16T02:18:44;22.42;;;10.93;;
24637;SDS011;12773;50.162;8.548;2022-10-16T02:21:43;19.17;;;10.53;;
24637;SDS011;12773;50.162;8.548;2022-10-16T02:33:24;17.17;;;10.32;;
24637;SDS011;12773;50.162;8.548;2022-10-16T02:36:13;18.98;;;10.25;;
24637;SDS011;12773;50.162;8.548;2022-10-16T02:39:01;20.68;;;10.43;;
24637;SDS011;12773;50.162;8.548;2022-10-16T02:41:50;17.82;;;9.85;;
24637;SDS011;12773;50.162;8.548;2022-10-16T02:44:38;17.00;;;10.25;;
24637;SDS011;12773;50.162;8.548;2022-10-16T02:47:25;25.75;;;10.32;;
24637;SDS011;12773;50.162;8.548;2022-10-16T02:50:12;15.58;;;9.25;;
24637;SDS011;12773;50.162;8.548;2022-10-16T02:53:00;17.57;;;9.38;;
24637;SDS011;12773;50.162;8.548;2022-10-16T02:55:48;21.25;;;9.50;;
24637;SDS011;12773;50.162;8.548;2022-10-16T02:58:35;20.12;;;9.63;;
24637;SDS011;12773;50.162;8.548;2022-10-16T03:01:22;16.10;;;9.10;;
24637;SDS011;12773;50.162;8.548;2022-10-16T03:04:10;13.88;;;8.48;;
24637;SDS011;12773;50.162;8.548;2022-10-16T03:06:57;13.30;;;8.50;;
24637;SDS011;12773;50.162;8.548;2022-10-16T03:09:45;14.55;;;8.48;;
24637;SDS011;12773;50.162;8.548;2022-10-16T03:12:33;16.05;;;8.75;;
24637;SDS011;12773;50.162;8.548;2022-10-16T03:15:20;14.63;;;8.30;;
24637;SDS011;12773;50.162;8.548;2022-10-16T03:18:07;16.73;;;9.75;;
24637;SDS011;12773;50.162;8.548;2022-10-16T03:20:54;19.92;;;9.03;;
24637;SDS011;12773;50.162;8.548;2022-10-16T03:23:42;17.77;;;8.75;;
24637;SDS011;12773;50.162;8.548;2022-10-16T03:26:29;16.05;;;8.68;;
24637;SDS011;12773;50.162;8.548;2022-10-16T03:29:17;17.52;;;8.23;;
24637;SDS011;12773;50.162;8.548;2022-10-16T03:32:04;13.20;;;8.40;;
24637;SDS011;12773;50.162;8.548;2022-10-16T03:34:51;12.03;;;8.10;;
24637;SDS011;12773;50.162;8.548;2022-10-16T03:37:39;17.42;;;9.13;;
24637;SDS011;12773;50.162;8.548;2022-10-16T03:40:27;15.85;;;8.65;;
24637;SDS011;12773;50.162;8.548;2022-10-16T03:43:16;12.00;;;7.87;;
24637;SDS011;12773;50.162;8.548;2022-10-16T03:46:04;14.93;;;8.93;;
24637;SDS011;12773;50.162;8.548;2022-10-16T03:48:52;14.50;;;8.03;;
24637;SDS011;12773;50.162;8.548;2022-10-16T03:51:39;14.63;;;7.83;;
24637;SDS011;12773;50.162;8.548;2022-10-16T03:54:27;16.17;;;8.05;;
24637;SDS011;12773;50.162;8.548;2022-10-16T03:57:14;12.13;;;7.87;;
24637;SDS011;12773;50.162;8.548;2022-10-16T04:00:01;17.48;;;8.35;;
24637;SDS011;12773;50.162;8.548;2022-10-16T04:02:49;13.22;;;7.90;;
24637;SDS011;12773;50.162;8.548;2022-10-16T04:05:36;16.52;;;8.28;;
24637;SDS011;12773;50.162;8.548;2022-10-16T04:08:24;16.30;;;7.78;;
24637;SDS011;12773;50.162;8.548;2022-10-16T04:11:11;15.88;;;8.33;;
24637;SDS011;12773;50.162;8.548;2022-10-16T04:13:59;14.05;;;7.87;;
24637;SDS011;12773;50.162;8.548;2022-10-16T04:16:47;16.85;;;8.28;;
24637;SDS011;12773;50.162;8.548;2022-10-16T04:19:34;13.50;;;7.30;;
24637;SDS011;12773;50.162;8.548;2022-10-16T04:22:22;14.18;;;7.30;;
24637;SDS011;12773;50.162;8.548;2022-10-16T04:25:10;13.38;;;6.97;;
24637;SDS011;12773;50.162;8.548;2022-10-16T04:27:57;11.70;;;6.85;;
24637;SDS011;12773;50.162;8.548;2022-10-16T04:30:45;13.03;;;6.53;;
24637;SDS011;12773;50.162;8.548;2022-10-16T04:33:32;14.23;;;7.00;;
24637;SDS011;12773;50.162;8.548;2022-10-16T04:36:20;17.23;;;6.92;;
24637;SDS011;12773;50.162;8.548;2022-10-16T04:39:09;12.07;;;6.42;;
24637;SDS011;12773;50.162;8.548;2022-10-16T04:41:56;11.83;;;6.65;;
24637;SDS011;12773;50.162;8.548;2022-10-16T04:44:44;12.45;;;6.00;;
24637;SDS011;12773;50.162;8.548;2022-10-16T04:47:31;9.68;;;6.33;;
24637;SDS011;12773;50.162;8.548;2022-10-16T04:50:18;13.03;;;6.70;;
24637;SDS011;12773;50.162;8.548;2022-10-16T04:53:06;11.12;;;5.97;;
24637;SDS011;12773;50.162;8.548;2022-10-16T04:55:53;10.48;;;5.85;;
24637;SDS011;12773;50.162;8.548;2022-10-16T04:58:42;12.25;;;5.62;;
24637;SDS011;12773;50.162;8.548;2022-10-16T05:01:30;13.00;;;6.03;;
24637;SDS011;12773;50.162;8.548;2022-10-16T05:04:17;12.15;;;6.05;;
24637;SDS011;12773;50.162;8.548;2022-10-16T05:07:05;14.28;;;6.05;;
24637;SDS011;12773;50.162;8.548;2022-10-16T05:09:52;10.63;;;6.10;;
24637;SDS011;12773;50.162;8.548;2022-10-16T05:12:40;12.50;;;5.92;;
24637;SDS011;12773;50.162;8.548;2022-10-16T05:15:27;10.63;;;5.62;;
24637;SDS011;12773;50.162;8.548;2022-10-16T05:21:21;10.10;;;5.60;;
24637;SDS011;12773;50.162;8.548;2022-10-16T05:24:08;16.17;;;5.55;;
24637;SDS011;12773;50.162;8.548;2022-10-16T05:26:55;8.08;;;5.10;;
24637;SDS011;12773;50.162;8.548;2022-10-16T05:29:42;15.95;;;5.72;;
24637;SDS011;12773;50.162;8.548;2022-10-16T05:32:35;10.13;;;5.00;;
24637;SDS011;12773;50.162;8.548;2022-10-16T05:35:22;7.33;;;4.85;;
24637;SDS011;12773;50.162;8.548;2022-10-16T05:38:10;11.70;;;5.47;;
24637;SDS011;12773;50.162;8.548;2022-10-16T05:40:57;8.63;;;5.00;;
24637;SDS011;12773;50.162;8.548;2022-10-16T05:43:45;9.45;;;4.72;;
24637;SDS011;12773;50.162;8.548;2022-10-16T05:46:32;7.05;;;4.30;;
24637;SDS011;12773;50.162;8.548;2022-10-16T05:49:19;10.48;;;4.85;;
24637;SDS011;12773;50.162;8.548;2022-10-16T05:52:07;12.58;;;4.67;;
24637;SDS011;12773;50.162;8.548;2022-10-16T05:54:55;8.30;;;4.50;;
24637;SDS011;12773;50.162;8.548;2022-10-16T05:57:42;6.67;;;4.22;;
24637;SDS011;12773;50.162;8.548;2022-10-16T06:00:30;12.43;;;4.65;;
24637;SDS011;12773;50.162;8.548;2022-10-16T06:03:17;8.55;;;5.03;;
24637;SDS011;12773;50.162;8.548;2022-10-16T06:06:11;12.43;;;5.17;;
24637;SDS011;12773;50.162;8.548;2022-10-16T06:09:00;8.75;;;4.62;;
24637;SDS011;12773;50.162;8.548;2022-10-16T06:11:47;8.88;;;5.28;;
24637;SDS011;12773;50.162;8.548;2022-10-16T06:14:35;8.03;;;5.05;;
24637;SDS011;12773;50.162;8.548;2022-10-16T06:17:22;10.45;;;5.53;;
24637;SDS011;12773;50.162;8.548;2022-10-16T06:20:11;9.68;;;5.35;;
24637;SDS011;12773;50.162;8.548;2022-10-16T06:22:58;14.58;;;5.12;;
24637;SDS011;12773;50.162;8.548;2022-10-16T06:25:45;7.78;;;5.42;;
24637;SDS011;12773;50.162;8.548;2022-10-16T06:28:33;10.82;;;6.15;;
24637;SDS011;12773;50.162;8.548;2022-10-16T06:31:20;11.03;;;6.67;;
24637;SDS011;12773;50.162;8.548;2022-10-16T06:34:09;8.18;;;5.65;;
24637;SDS011;12773;50.162;8.548;2022-10-16T06:36:57;9.38;;;5.20;;
24637;SDS011;12773;50.162;8.548;2022-10-16T06:39:44;10.80;;;5.58;;
24637;SDS011;12773;50.162;8.548;2022-10-16T06:42:31;8.35;;;4.70;;
24637;SDS011;12773;50.162;8.548;2022-10-16T06:45:19;8.23;;;5.10;;
24637;SDS011;12773;50.162;8.548;2022-10-16T06:48:06;8.20;;;4.95;;
24637;SDS011;12773;50.162;8.548;2022-10-16T06:50:57;6.62;;;4.42;;
24637;SDS011;12773;50.162;8.548;2022-10-16T06:53:47;6.25;;;4.60;;
24637;SDS011;12773;50.162;8.548;2022-10-16T06:56:38;6.72;;;4.72;;
24637;SDS011;12773;50.162;8.548;2022-10-16T06:59:25;5.53;;;4.47;;
24637;SDS011;12773;50.162;8.548;2022-10-16T07:02:12;7.83;;;3.87;;
24637;SDS011;12773;50.162;8.548;2022-10-16T07:05:00;5.40;;;4.33;;
24637;SDS011;12773;50.162;8.548;2022-10-16T07:07:48;5.62;;;4.47;;
24637;SDS011;12773;50.162;8.548;2022-10-16T07:10:35;7.22;;;4.50;;
24637;SDS011;12773;50.162;8.548;2022-10-16T07:13:22;10.75;;;4.62;;
24637;SDS011;12773;50.162;8.548;2022-10-16T07:16:10;6.58;;;4.62;;
24637;SDS011;12773;50.162;8.548;2022-10-16T07:19:00;5.97;;;4.12;;
24637;SDS011;12773;50.162;8.548;2022-10-16T07:21:48;5.78;;;4.17;;
24637;SDS011;12773;50.162;8.548;2022-10-16T07:24:36;3.98;;;3.50;;
24637;SDS011;12773;50.162;8.548;2022-10-16T07:27:23;7.10;;;4.12;;
24637;SDS011;12773;50.162;8.548;2022-10-16T07:30:12;8.33;;;4.15;;
24637;SDS011;12773;50.162;8.548;2022-10-16T07:32:59;5.97;;;4.00;;
24637;SDS011;12773;50.162;8.548;2022-10-16T07:35:50;4.75;;;4.00;;
24637;SDS011;12773;50.162;8.548;2022-10-16T07:38:38;5.60;;;4.12;;
24637;SDS011;12773;50.162;8.548;2022-10-16T07:41:25;9.85;;;4.35;;
24637;SDS011;12773;50.162;8.548;2022-10-16T07:44:13;7.87;;;4.17;;
24637;SDS011;12773;50.162;8.548;2022-10-16T07:47:02;6.87;;;4.20;;
24637;SDS011;12773;50.162;8.548;2022-10-16T07:49:50;5.08;;;4.25;;
24637;SDS011;12773;50.162;8.548;2022-10-16T07:52:37;5.80;;;4.10;;
24637;SDS011;12773;50.162;8.548;2022-10-16T07:55:24;6.20;;;4.47;;
24637;SDS011;12773;50.162;8.548;2022-10-16T07:58:12;5.22;;;4.10;;
24637;SDS011;12773;50.162;8.548;2022-10-16T08:01:03;8.48;;;4.00;;
24637;SDS011;12773;50.162;8.548;2022-10-16T08:03:52;7.97;;;4.20;;
24637;SDS011;12773;50.162;8.548;2022-10-16T08:06:40;6.35;;;4.00;;
24637;SDS011;12773;50.162;8.548;2022-10-16T08:09:27;8.85;;;3.85;;
24637;SDS011;12773;50.162;8.548;2022-10-16T08:12:15;7.30;;;3.90;;
24637;SDS011;12773;50.162;8.548;2022-10-16T08:15:03;7.20;;;3.80;;
24637;SDS011;12773;50.162;8.548;2022-10-16T08:17:54;9.83;;;3.85;;
24637;SDS011;12773;50.162;8.548;2022-10-16T08:20:42;5.12;;;3.90;;
24637;SDS011;12773;50.162;8.548;2022-10-16T08:23:30;7.53;;;3.42;;
24637;SDS011;12773;50.162;8.548;2022-10-16T08:26:17;6.22;;;4.12;;
24637;SDS011;12773;50.162;8.548;2022-10-16T08:29:05;6.85;;;3.98;;
24637;SDS011;12773;50.162;8.548;2022-10-16T08:31:52;6.78;;;4.40;;
24637;SDS011;12773;50.162;8.548;2022-10-16T08:34:40;7.28;;;3.90;;
24637;SDS011;12773;50.162;8.548;2022-10-16T08:37:30;7.03;;;3.87;;
24637;SDS011;12773;50.162;8.548;2022-10-16T08:40:26;6.17;;;3.45;;
24637;SDS011;12773;50.162;8.548;2022-10-16T08:46:21;6.08;;;3.62;;
24637;SDS011;12773;50.162;8.548;2022-10-16T08:49:11;5.20;;;3.47;;
24637;SDS011;12773;50.162;8.548;2022-10-16T08:52:00;7.03;;;3.33;;
24637;SDS011;12773;50.162;8.548;2022-10-16T08:54:48;5.37;;;3.70;;
24637;SDS011;12773;50.162;8.548;2022-10-16T08:57:37;5.08;;;3.60;;
24637;SDS011;12773;50.162;8.548;2022-10-16T09:00:25;5.50;;;3.35;;
24637;SDS011;12773;50.162;8.548;2022-10-16T09:06:34;9.68;;;3.92;;
24637;SDS011;12773;50.162;8.548;2022-10-16T09:09:36;5.97;;;4.05;;
24637;SDS011;12773;50.162;8.548;2022-10-16T09:19:09;8.35;;;4.22;;
24637;SDS011;12773;50.162;8.548;2022-10-16T09:21:58;9.60;;;3.75;;
24637;SDS011;12773;50.162;8.548;2022-10-16T09:24:48;6.62;;;3.67;;
24637;SDS011;12773;50.162;8.548;2022-10-16T09:27:36;9.68;;;3.80;;
24637;SDS011;12773;50.162;8.548;2022-10-16T09:30:26;6.58;;;3.58;;
24637;SDS011;12773;50.162;8.548;2022-10-16T09:33:17;4.78;;;3.83;;
24637;SDS011;12773;50.162;8.548;2022-10-16T09:36:07;4.78;;;3.65;;
24637;SDS011;12773;50.162;8.548;2022-10-16T09:39:05;3.92;;;3.22;;
24637;SDS011;12773;50.162;8.548;2022-10-16T09:41:57;4.92;;;3.33;;
24637;SDS011;12773;50.162;8.548;2022-10-16T09:44:49;7.47;;;3.70;;
24637;SDS011;12773;50.162;8.548;2022-10-16T09:47:39;4.62;;;3.58;;
24637;SDS011;12773;50.162;8.548;2022-10-16T09:50:29;3.95;;;2.95;;
24637;SDS011;12773;50.162;8.548;2022-10-16T09:53:17;5.35;;;2.80;;
24637;SDS011;12773;50.162;8.548;2022-10-16T09:56:06;8.28;;;3.30;;
24637;SDS011;12773;50.162;8.548;2022-10-16T09:58:56;5.40;;;3.08;;
24637;SDS011;12773;50.162;8.548;2022-10-16T10:01:49;8.68;;;3.33;;
24637;SDS011;12773;50.162;8.548;2022-10-16T10:04:39;7.15;;;3.37;;
24637;SDS011;12773;50.162;8.548;2022-10-16T10:07:30;7.00;;;4.00;;
24637;SDS011;12773;50.162;8.548;2022-10-16T10:10:21;9.50;;;4.20;;
24637;SDS011;12773;50.162;8.548;2022-10-16T10:13:20;5.87;;;3.75;;
24637;SDS011;12773;50.162;8.548;2022-10-16T10:16:09;3.22;;;2.90;;
24637;SDS011;12773;50.162;8.548;2022-10-16T10:19:00;4.42;;;3.08;;
24637;SDS011;12773;50.162;8.548;2022-10-16T10:21:49;6.72;;;3.05;;
24637;SDS011;12773;50.162;8.548;2022-10-16T10:24:37;5.03;;;2.60;;
24637;SDS011;12773;50.162;8.548;2022-10-16T10:27:28;5.67;;;2.50;;
24637;SDS011;12773;50.162;8.548;2022-10-16T10:30:54;5.25;;;2.15;;
24637;SDS011;12773;50.162;8.548;2022-10-16T10:36:40;2.22;;;1.77;;
24637;SDS011;12773;50.162;8.548;2022-10-16T10:39:35;2.77;;;2.00;;
24637;SDS011;12773;50.162;8.548;2022-10-16T10:43:05;5.15;;;2.30;;
24637;SDS011;12773;50.162;8.548;2022-10-16T10:45:44;5.85;;;2.37;;
24637;SDS011;12773;50.162;8.548;2022-10-16T10:52:05;3.50;;;2.40;;
24637;SDS011;12773;50.162;8.548;2022-10-16T11:01:54;4.60;;;2.58;;
24637;SDS011;12773;50.162;8.548;2022-10-16T11:04:59;3.90;;;2.30;;
24637;SDS011;12773;50.162;8.548;2022-10-16T11:11:09;3.75;;;2.52;;
24637;SDS011;12773;50.162;8.548;2022-10-16T11:14:02;2.77;;;2.20;;
24637;SDS011;12773;50.162;8.548;2022-10-16T11:17:08;3.98;;;1.87;;
24637;SDS011;12773;50.162;8.548;2022-10-16T11:20:02;4.53;;;2.27;;
24637;SDS011;12773;50.162;8.548;2022-10-16T11:22:50;2.25;;;1.62;;
24637;SDS011;12773;50.162;8.548;2022-10-16T11:25:42;5.00;;;2.30;;
24637;SDS011;12773;50.162;8.548;2022-10-16T11:28:32;3.05;;;1.92;;
24637;SDS011;12773;50.162;8.548;2022-10-16T11:31:28;2.52;;;1.92;;
24637;SDS011;12773;50.162;8.548;2022-10-16T11:37:32;1.92;;;1.55;;
24637;SDS011;12773;50.162;8.548;2022-10-16T11:40:22;3.47;;;1.62;;
24637;SDS011;12773;50.162;8.548;2022-10-16T11:43:22;5.55;;;2.20;;
24637;SDS011;12773;50.162;8.548;2022-10-16T11:46:15;3.45;;;1.80;;
24637;SDS011;12773;50.162;8.548;2022-10-16T11:49:10;2.05;;;1.80;;
24637;SDS011;12773;50.162;8.548;2022-10-16T11:54:56;2.67;;;1.90;;
24637;SDS011;12773;50.162;8.548;2022-10-16T11:57:57;3.08;;;1.82;;
24637;SDS011;12773;50.162;8.548;2022-10-16T12:00:53;3.90;;;2.60;;
24637;SDS011;12773;50.162;8.548;2022-10-16T12:03:49;6.08;;;2.20;;
24637;SDS011;12773;50.162;8.548;2022-10-16T12:09:32;8.15;;;3.30;;
24637;SDS011;12773;50.162;8.548;2022-10-16T12:12:25;3.98;;;3.15;;
24637;SDS011;12773;50.162;8.548;2022-10-16T12:15:20;6.60;;;3.40;;
24637;SDS011;12773;50.162;8.548;2022-10-16T12:18:24;3.80;;;2.90;;
24637;SDS011;12773;50.162;8.548;2022-10-16T12:21:11;4.17;;;2.40;;
24637;SDS011;12773;50.162;8.548;2022-10-16T12:24:01;3.42;;;2.20;;
24637;SDS011;12773;50.162;8.548;2022-10-16T12:26:50;2.60;;;1.85;;
24637;SDS011;12773;50.162;8.548;2022-10-16T12:29:40;1.75;;;1.60;;
24637;SDS011;12773;50.162;8.548;2022-10-16T12:35:24;2.50;;;1.77;;
24637;SDS011;12773;50.162;8.548;2022-10-16T12:38:26;2.70;;;1.60;;
24637;SDS011;12773;50.162;8.548;2022-10-16T12:41:33;4.58;;;1.87;;
24637;SDS011;12773;50.162;8.548;2022-10-16T12:44:23;2.30;;;2.00;;
24637;SDS011;12773;50.162;8.548;2022-10-16T12:47:22;1.55;;;1.32;;
24637;SDS011;12773;50.162;8.548;2022-10-16T12:50:25;1.98;;;1.80;;
24637;SDS011;12773;50.162;8.548;2022-10-16T12:53:23;2.10;;;1.85;;
24637;SDS011;12773;50.162;8.548;2022-10-16T12:56:16;3.17;;;1.55;;
24637;SDS011;12773;50.162;8.548;2022-10-16T12:59:12;2.40;;;2.10;;
24637;SDS011;12773;50.162;8.548;2022-10-16T13:18:06;3.98;;;1.57;;
24637;SDS011;12773;50.162;8.548;2022-10-16T13:24:11;2.62;;;1.35;;
24637;SDS011;12773;50.162;8.548;2022-10-16T13:30:23;2.72;;;1.47;;
24637;SDS011;12773;50.162;8.548;2022-10-16T13:33:15;1.75;;;1.25;;
24637;SDS011;12773;50.162;8.548;2022-10-16T13:36:05;2.47;;;1.40;;
24637;SDS011;12773;50.162;8.548;2022-10-16T13:42:06;1.87;;;1.67;;
24637;SDS011;12773;50.162;8.548;2022-10-16T13:44:59;2.00;;;1.32;;
24637;SDS011;12773;50.162;8.548;2022-10-16T13:47:46;1.25;;;1.10;;
24637;SDS011;12773;50.162;8.548;2022-10-16T13:50:34;3.75;;;1.50;;
24637;SDS011;12773;50.162;8.548;2022-10-16T13:53:21;2.90;;;1.25;;
24637;SDS011;12773;50.162;8.548;2022-10-16T13:56:14;1.50;;;1.22;;
24637;SDS011;12773;50.162;8.548;2022-10-16T13:59:03;1.90;;;1.20;;
24637;SDS011;12773;50.162;8.548;2022-10-16T14:01:53;4.85;;;1.40;;
24637;SDS011;12773;50.162;8.548;2022-10-16T14:04:42;1.70;;;1.30;;
24637;SDS011;12773;50.162;8.548;2022-10-16T14:07:30;1.95;;;1.40;;
24637;SDS011;12773;50.162;8.548;2022-10-16T14:10:21;2.90;;;1.40;;
24637;SDS011;12773;50.162;8.548;2022-10-16T14:13:12;2.45;;;1.40;;
24637;SDS011;12773;50.162;8.548;2022-10-16T14:16:02;4.33;;;1.30;;
24637;SDS011;12773;50.162;8.548;2022-10-16T14:18:57;2.98;;;1.30;;
24637;SDS011;12773;50.162;8.548;2022-10-16T14:21:47;2.75;;;1.40;;
24637;SDS011;12773;50.162;8.548;2022-10-16T14:24:35;2.30;;;2.00;;
24637;SDS011;12773;50.162;8.548;2022-10-16T14:27:28;2.83;;;1.67;;
24637;SDS011;12773;50.162;8.548;2022-10-16T14:30:22;1.47;;;1.37;;
24637;SDS011;12773;50.162;8.548;2022-10-16T14:33:24;2.92;;;1.30;;
24637;SDS011;12773;50.162;8.548;2022-10-16T14:36:15;1.77;;;1.22;;
24637;SDS011;12773;50.162;8.548;2022-10-16T14:39:05;2.50;;;1.10;;
24637;SDS011;12773;50.162;8.548;2022-10-16T14:41:55;1.30;;;1.20;;
24637;SDS011;12773;50.162;8.548;2022-10-16T14:44:44;2.47;;;1.45;;
24637;SDS011;12773;50.162;8.548;2022-10-16T14:47:32;2.65;;;1.15;;
24637;SDS011;12773;50.162;8.548;2022-10-16T14:50:40;3.85;;;1.47;;
24637;SDS011;12773;50.162;8.548;2022-10-16T14:53:28;2.47;;;1.80;;
24637;SDS011;12773;50.162;8.548;2022-10-16T14:56:17;3.87;;;1.60;;
24637;SDS011;12773;50.162;8.548;2022-10-16T14:59:07;2.72;;;1.62;;
24637;SDS011;12773;50.162;8.548;2022-10-16T15:01:56;2.52;;;1.52;;
24637;SDS011;12773;50.162;8.548;2022-10-16T15:04:43;1.90;;;1.50;;
24637;SDS011;12773;50.162;8.548;2022-10-16T15:07:31;5.92;;;1.42;;
24637;SDS011;12773;50.162;8.548;2022-10-16T15:10:18;2.67;;;1.55;;
24637;SDS011;12773;50.162;8.548;2022-10-16T15:13:13;2.17;;;1.95;;
24637;SDS011;12773;50.162;8.548;2022-10-16T15:15:58;4.25;;;2.77;;
24637;SDS011;12773;50.162;8.548;2022-10-16T15:18:46;4.33;;;2.80;;
24637;SDS011;12773;50.162;8.548;2022-10-16T15:21:33;5.87;;;2.52;;
24637;SDS011;12773;50.162;8.548;2022-10-16T15:24:20;3.58;;;2.12;;
24637;SDS011;12773;50.162;8.548;2022-10-16T15:27:08;3.75;;;1.80;;
24637;SDS011;12773;50.162;8.548;2022-10-16T15:29:55;1.52;;;1.30;;
24637;SDS011;12773;50.162;8.548;2022-10-16T15:32:42;3.40;;;1.77;;
24637;SDS011;12773;50.162;8.548;2022-10-16T15:35:30;4.85;;;3.20;;
24637;SDS011;12773;50.162;8.548;2022-10-16T15:38:19;2.40;;;1.85;;
24637;SDS011;12773;50.162;8.548;2022-10-16T15:41:08;3.20;;;1.75;;
24637;SDS011;12773;50.162;8.548;2022-10-16T15:43:55;1.62;;;1.45;;
24637;SDS011;12773;50.162;8.548;2022-10-16T15:46:42;2.65;;;1.75;;
24637;SDS011;12773;50.162;8.548;2022-10-16T15:49:30;3.22;;;1.77;;
24637;SDS011;12773;50.162;8.548;2022-10-16T15:52:17;3.37;;;1.75;;
24637;SDS011;12773;50.162;8.548;2022-10-16T15:55:05;4.15;;;1.75;;
24637;SDS011;12773;50.162;8.548;2022-10-16T15:57:56;2.17;;;1.70;;
24637;SDS011;12773;50.162;8.548;2022-10-16T16:00:43;3.67;;;1.70;;
24637;SDS011;12773;50.162;8.548;2022-10-16T16:03:31;2.55;;;1.60;;
24637;SDS011;12773;50.162;8.548;2022-10-16T16:06:19;2.25;;;1.98;;
24637;SDS011;12773;50.162;8.548;2022-10-16T16:09:07;3.75;;;2.00;;
24637;SDS011;12773;50.162;8.548;2022-10-16T16:11:54;3.47;;;2.20;;
24637;SDS011;12773;50.162;8.548;2022-10-16T16:14:43;2.83;;;1.85;;
24637;SDS011;12773;50.162;8.548;2022-10-16T16:17:33;3.92;;;1.92;;
24637;SDS011;12773;50.162;8.548;2022-10-16T16:20:21;3.47;;;1.87;;
24637;SDS011;12773;50.162;8.548;2022-10-16T16:23:08;5.87;;;2.08;;
24637;SDS011;12773;50.162;8.548;2022-10-16T16:26:06;3.98;;;2.42;;
24637;SDS011;12773;50.162;8.548;2022-10-16T16:28:55;15.00;;;2.92;;
24637;SDS011;12773;50.162;8.548;2022-10-16T16:31:43;5.22;;;3.08;;
24637;SDS011;12773;50.162;8.548;2022-10-16T16:34:31;4.30;;;3.45;;
24637;SDS011;12773;50.162;8.548;2022-10-16T16:37:19;7.00;;;3.25;;
24637;SDS011;12773;50.162;8.548;2022-10-16T16:40:06;5.75;;;2.83;;
24637;SDS011;12773;50.162;8.548;2022-10-16T16:42:53;4.12;;;2.80;;
24637;SDS011;12773;50.162;8.548;2022-10-16T16:45:40;8.33;;;3.40;;
24637;SDS011;12773;50.162;8.548;2022-10-16T16:48:28;6.60;;;3.17;;
24637;SDS011;12773;50.162;8.548;2022-10-16T16:51:16;5.00;;;3.30;;
24637;SDS011;12773;50.162;8.548;2022-10-16T16:54:05;7.67;;;3.40;;
24637;SDS011;12773;50.162;8.548;2022-10-16T16:56:53;4.92;;;3.33;;
24637;SDS011;12773;50.162;8.548;2022-10-16T16:59:41;5.85;;;3.47;;
24637;SDS011;12773;50.162;8.548;2022-10-16T17:02:29;6.75;;;4.17;;
24637;SDS011;12773;50.162;8.548;2022-10-16T17:05:16;6.70;;;4.20;;
24637;SDS011;12773;50.162;8.548;2022-10-16T17:08:07;6.10;;;3.92;;
24637;SDS011;12773;50.162;8.548;2022-10-16T17:10:54;6.62;;;3.27;;
24637;SDS011;12773;50.162;8.548;2022-10-16T17:13:42;8.13;;;3.22;;
24637;SDS011;12773;50.162;8.548;2022-10-16T17:16:31;10.03;;;4.50;;
24637;SDS011;12773;50.162;8.548;2022-10-16T17:19:20;6.40;;;4.50;;
24637;SDS011;12773;50.162;8.548;2022-10-16T17:22:08;5.50;;;3.92;;
24637;SDS011;12773;50.162;8.548;2022-10-16T17:24:55;10.10;;;4.50;;
24637;SDS011;12773;50.162;8.548;2022-10-16T17:27:42;7.33;;;4.05;;
24637;SDS011;12773;50.162;8.548;2022-10-16T17:30:30;6.37;;;3.55;;
24637;SDS011;12773;50.162;8.548;2022-10-16T17:33:19;10.00;;;4.20;;
24637;SDS011;12773;50.162;8.548;2022-10-16T17:36:06;7.50;;;3.40;;
24637;SDS011;12773;50.162;8.548;2022-10-16T17:38:56;12.25;;;4.35;;
24637;SDS011;12773;50.162;8.548;2022-10-16T17:41:46;6.03;;;4.37;;
24637;SDS011;12773;50.162;8.548;2022-10-16T17:44:34;7.55;;;5.17;;
24637;SDS011;12773;50.162;8.548;2022-10-16T17:47:21;9.63;;;4.50;;
24637;SDS011;12773;50.162;8.548;2022-10-16T17:50:08;7.12;;;4.83;;
24637;SDS011;12773;50.162;8.548;2022-10-16T17:52:57;10.68;;;4.50;;
24637;SDS011;12773;50.162;8.548;2022-10-16T17:55:44;8.48;;;4.85;;
24637;SDS011;12773;50.162;8.548;2022-10-16T17:58:32;8.50;;;4.62;;
24637;SDS011;12773;50.162;8.548;2022-10-16T18:01:20;8.73;;;5.28;;
24637;SDS011;12773;50.162;8.548;2022-10-16T18:04:10;10.32;;;4.70;;
24637;SDS011;12773;50.162;8.548;2022-10-16T18:06:59;7.35;;;4.37;;
24637;SDS011;12773;50.162;8.548;2022-10-16T18:09:48;9.40;;;5.05;;
24637;SDS011;12773;50.162;8.548;2022-10-16T18:12:37;8.70;;;4.78;;
24637;SDS011;12773;50.162;8.548;2022-10-16T18:15:25;14.03;;;5.78;;
24637;SDS011;12773;50.162;8.548;2022-10-16T18:18:13;17.85;;;5.78;;
24637;SDS011;12773;50.162;8.548;2022-10-16T18:21:01;11.78;;;5.47;;
24637;SDS011;12773;50.162;8.548;2022-10-16T18:23:50;11.35;;;5.62;;
24637;SDS011;12773;50.162;8.548;2022-10-16T18:26:37;6.55;;;4.80;;
24637;SDS011;12773;50.162;8.548;2022-10-16T18:29:25;14.15;;;6.87;;
24637;SDS011;12773;50.162;8.548;2022-10-16T18:32:13;10.58;;;6.28;;